Time;durP1;ratioP1;P1;durP2;ratioP2;P2;SDS_P1;SDS_P2;PMS_P1;PMS_P2;Temp;Humidity;BMP_temperature;BMP_pressure;BME280_temperature;BME280_humidity;BME280_pressure;Samples;Min_cycle;Max_cycle;Signal;HPM_P1;HPM_P2
2022/07/03 00:01:26;;;;;;;;;5.00;2.00;;;;;18.79;100.00;101533.72;5023528;28;44790;-89
2022/07/03 00:03:53;;;;;;;;;2.25;2.00;;;;;18.74;100.00;101531.44;5022990;28;44729;-88
2022/07/03 00:06:18;;;;;;;;;1.20;1.20;;;;;18.66;100.00;101539.31;5006227;28;45310;-84
2022/07/03 00:08:44;;;;;;;;;1.50;1.50;;;;;18.66;100.00;101524.97;5022210;28;45155;-85
2022/07/03 00:11:11;;;;;;;;;1.00;1.00;;;;;18.63;100.00;101520.75;5022892;28;44723;-85
2022/07/03 00:13:36;;;;;;;;;1.00;1.00;;;;;18.65;100.00;101532.22;5022403;28;45210;-85
2022/07/03 00:16:02;;;;;;;;;3.00;1.00;;;;;18.60;100.00;101522.84;5023096;28;44826;-84
2022/07/03 00:18:28;;;;;;;;;1.00;1.00;;;;;18.59;100.00;101523.84;5024057;28;45242;-84
2022/07/03 00:21:00;;;;;;;;;2.75;2.00;;;;;18.59;100.00;101518.44;5022819;28;45486;-84
2022/07/03 00:23:29;;;;;;;;;3.80;2.00;;;;;18.60;100.00;101525.53;5021300;28;44715;-84
2022/07/03 00:25:55;;;;;;;;;3.00;3.00;;;;;18.62;100.00;101527.13;5019983;28;45404;-85
2022/07/03 00:28:20;;;;;;;;;3.20;2.00;;;;;18.60;100.00;101521.00;5000802;28;46898;-84
2022/07/03 00:30:47;;;;;;;;;1.00;1.00;;;;;18.59;100.00;101523.84;5018840;28;44854;-87
2022/07/03 00:33:14;;;;;;;;;0.00;0.00;;;;;18.58;100.00;101524.81;5027548;28;44752;-89
2022/07/03 00:35:42;;;;;;;;;2.00;2.00;;;;;18.57;100.00;101515.06;5025160;28;45350;-88
2022/07/03 00:38:08;;;;;;;;;1.80;1.80;;;;;18.56;100.00;101519.56;5021524;28;45215;-88
2022/07/03 00:40:34;;;;;;;;;3.00;3.00;;;;;18.56;100.00;101516.88;5021332;28;45353;-89
2022/07/03 00:42:59;;;;;;;;;2.00;2.00;;;;;18.53;100.00;101509.09;5020319;28;44774;-89
2022/07/03 00:45:26;;;;;;;;;2.00;2.00;;;;;18.54;100.00;101518.84;5021291;28;44858;-89
2022/07/03 00:47:54;;;;;;;;;1.00;1.00;;;;;18.50;100.00;101512.88;5039446;28;45375;-89
2022/07/03 00:50:33;;;;;;;;;3.20;2.00;;;;;18.46;100.00;101516.81;5028239;28;44796;-88
2022/07/03 00:53:00;;;;;;;;;2.80;2.20;;;;;18.44;100.00;101523.34;5029882;28;44939;-88
2022/07/03 00:55:27;;;;;;;;;3.00;3.00;;;;;18.41;100.00;101521.75;5048589;28;44993;-88
2022/07/03 00:57:55;;;;;;;;;1.60;1.60;;;;;18.37;100.00;101522.16;5030385;28;46773;-89
2022/07/03 01:00:22;;;;;;;;;4.00;3.80;;;;;18.36;100.00;101523.16;5025651;28;44648;-88
2022/07/03 01:03:05;;;;;;;;;4.60;2.00;;;;;18.36;100.00;101521.31;5040612;28;44712;-88
2022/07/03 01:05:44;;;;;;;;;1.80;1.80;;;;;18.30;100.00;101521.84;5039848;28;44709;-88
2022/07/03 01:08:28;;;;;;;;;2.20;2.20;;;;;18.30;100.00;101518.31;5021855;28;47408;-88
2022/07/03 01:10:53;;;;;;;;;4.00;2.40;;;;;18.21;100.00;101510.06;5021784;28;44809;-88
2022/07/03 01:13:55;;;;;;;;;2.00;2.00;;;;;18.28;100.00;101525.69;5040147;28;45240;-88
2022/07/03 01:16:46;;;;;;;;;2.20;2.20;;;;;18.23;100.00;101526.06;5041338;28;45308;-88
2022/07/03 01:19:43;;;;;;;;;2.40;2.40;;;;;18.15;100.00;101529.41;5020642;28;46793;-88
2022/07/03 01:22:14;;;;;;;;;2.00;2.00;;;;;18.09;100.00;101531.78;5046483;28;44659;-87
2022/07/03 01:24:52;;;;;;;;;2.00;2.00;;;;;18.05;100.00;101527.66;5037407;28;44767;-87
2022/07/03 01:27:28;;;;;;;;;2.00;1.00;;;;;18.02;100.00;101530.59;5048725;28;44773;-88
2022/07/03 01:30:04;;;;;;;;;3.80;2.00;;;;;18.01;100.00;101527.06;5038705;28;45251;-88
2022/07/03 01:32:44;;;;;;;;;1.00;1.00;;;;;17.96;100.00;101530.13;5043383;28;44699;-88
2022/07/03 01:35:13;;;;;;;;;3.00;2.00;;;;;17.93;100.00;101533.09;5045553;28;44784;-88
2022/07/03 01:37:40;;;;;;;;;1.40;1.40;;;;;17.92;100.00;101527.84;5041587;28;44754;-88
2022/07/03 01:40:07;;;;;;;;;2.60;2.60;;;;;17.95;100.00;101533.81;5042173;28;45298;-88
2022/07/03 01:42:37;;;;;;;;;2.00;0.40;;;;;17.92;100.00;101530.53;5037526;28;45257;-88
2022/07/03 01:45:04;;;;;;;;;1.80;1.80;;;;;17.91;100.00;101528.84;5038213;28;45363;-89
2022/07/03 01:47:31;;;;;;;;;0.20;0.20;;;;;17.87;100.00;101530.06;5039724;28;44801;-89
2022/07/03 01:49:58;;;;;;;;;0.00;0.00;;;;;17.87;100.00;101535.44;5022527;28;46930;-88
2022/07/03 01:52:25;;;;;;;;;1.00;1.00;;;;;17.83;100.00;101525.94;5042832;28;45363;-87
2022/07/03 01:55:02;;;;;;;;;1.00;1.00;;;;;17.82;100.00;101535.00;5046256;28;45241;-88
2022/07/03 01:57:39;;;;;;;;;1.00;1.00;;;;;17.80;100.00;101528.91;5047616;28;44965;-89
2022/07/03 02:00:06;;;;;;;;;1.40;1.40;;;;;17.77;100.00;101521.09;5030513;28;45265;-88
2022/07/03 02:02:33;;;;;;;;;0.40;0.40;;;;;17.69;100.00;101513.63;5047274;28;45295;-88
2022/07/03 02:05:08;;;;;;;;;0.00;0.00;;;;;17.62;100.00;101512.47;5024263;28;44841;-89
2022/07/03 02:07:43;;;;;;;;;1.00;0.60;;;;;17.62;100.00;101524.06;5042749;28;44718;-88
2022/07/03 02:10:15;;;;;;;;;0.00;0.00;;;;;17.57;100.00;101528.97;5041314;28;45059;-89
2022/07/03 02:12:52;;;;;;;;;1.00;1.00;;;;;17.56;100.00;101521.91;5032165;28;44786;-88
2022/07/03 02:15:31;;;;;;;;;1.00;1.00;;;;;17.55;100.00;101522.00;5054630;28;44614;-87
2022/07/03 02:18:00;;;;;;;;;0.00;0.00;;;;;17.47;100.00;101517.28;5058586;28;44826;-87
2022/07/03 02:20:33;;;;;;;;;0.20;0.20;;;;;17.48;100.00;101533.28;5059019;28;45117;-88
2022/07/03 02:23:05;;;;;;;;;0.00;0.00;;;;;17.43;100.00;101529.25;5058215;28;44831;-87
2022/07/03 02:25:36;;;;;;;;;1.00;1.00;;;;;17.37;100.00;101519.03;5049800;28;44802;-89
2022/07/03 02:28:33;;;;;;;;;2.20;1.00;;;;;17.36;100.00;101525.41;5031596;28;44789;-88
2022/07/03 02:31:03;;;;;;;;;0.80;0.80;;;;;17.33;100.00;101526.50;5051692;28;45775;-88
2022/07/03 02:33:30;;;;;;;;;0.60;0.60;;;;;17.30;100.00;101524.03;5053037;28;45275;-88
2022/07/03 02:35:58;;;;;;;;;0.00;0.00;;;;;17.31;100.00;101527.59;5048228;28;44658;-84
2022/07/03 02:38:24;;;;;;;;;0.40;0.40;;;;;17.29;100.00;101518.81;5026292;28;44910;-85
2022/07/03 02:41:12;;;;;;;;;0.40;0.40;;;;;17.28;100.00;101525.16;5043785;28;45359;-84
2022/07/03 02:43:41;;;;;;;;;1.00;1.00;;;;;17.25;100.00;101531.63;5043829;28;45484;-84
2022/07/03 02:46:48;;;;;;;;;0.40;0.40;;;;;17.22;100.00;101537.28;5046674;28;45330;-85
2022/07/03 02:49:48;;;;;;;;;0.60;0.60;;;;;17.16;100.00;101535.06;4943532;28;45441;-84
2022/07/03 02:52:32;;;;;;;;;0.20;0.20;;;;;17.18;100.00;101541.19;4942519;28;45564;-84
2022/07/03 02:55:03;;;;;;;;;0.00;0.00;;;;;17.15;100.00;101536.91;4943768;28;44897;-83
2022/07/03 02:57:38;;;;;;;;;1.00;1.00;;;;;17.14;100.00;101531.66;4943983;28;44773;-84
2022/07/03 03:00:06;;;;;;;;;2.60;1.20;;;;;17.10;100.00;101532.91;4931670;28;44868;-84
2022/07/03 03:02:39;;;;;;;;;2.00;2.00;;;;;17.10;100.00;101544.47;4938836;28;45367;-85
2022/07/03 03:05:40;;;;;;;;;0.40;0.40;;;;;17.08;100.00;101548.28;4948135;28;44896;-84
2022/07/03 03:08:33;;;;;;;;;2.60;1.00;;;;;16.98;100.00;101540.13;4866841;29;44814;-85
2022/07/03 03:11:06;;;;;;;;;1.00;1.00;;;;;16.95;100.00;101554.63;4866047;29;45271;-84
2022/07/03 03:13:32;;;;;;;;;1.40;1.00;;;;;16.95;100.00;101540.38;4849979;29;46852;-84
2022/07/03 03:16:03;;;;;;;;;1.00;1.00;;;;;16.93;100.00;101556.59;4865665;29;44934;-84
2022/07/03 03:18:30;;;;;;;;;0.60;0.00;;;;;16.87;100.00;101551.72;4866075;29;44867;-84
2022/07/03 03:20:59;;;;;;;;;2.00;1.00;;;;;16.86;100.00;101557.22;4849741;29;45003;-84
2022/07/03 03:23:48;;;;;;;;;3.80;0.60;;;;;16.88;100.00;101550.75;4866862;29;45403;-83
2022/07/03 03:26:22;;;;;;;;;1.80;1.80;;;;;16.88;100.00;101555.28;4930203;28;44999;-84
2022/07/03 03:28:49;;;;;;;;;1.00;1.00;;;;;16.85;100.00;101555.50;4930412;28;44929;-85
2022/07/03 03:31:15;;;;;;;;;1.80;1.00;;;;;16.86;100.00;101550.00;4942703;28;44888;-85
2022/07/03 03:33:43;;;;;;;;;1.60;1.60;;;;;16.80;100.00;101545.16;4935777;28;46802;-84
2022/07/03 03:36:10;;;;;;;;;0.80;0.80;;;;;16.76;100.00;101549.03;4950193;28;44824;-84
2022/07/03 03:38:36;;;;;;;;;0.20;0.20;;;;;16.69;100.00;101537.94;4941477;28;45429;-84
2022/07/03 03:41:03;;;;;;;;;0.80;0.80;;;;;16.75;100.00;101544.66;4928167;28;44822;-84
2022/07/03 03:43:29;;;;;;;;;1.00;1.00;;;;;16.76;100.00;101543.69;4937282;28;45156;-84
2022/07/03 03:45:58;;;;;;;;;0.20;0.20;;;;;16.69;100.00;101550.50;5025030;28;44776;-84
2022/07/03 03:48:31;;;;;;;;;1.00;1.00;;;;;16.70;100.00;101546.81;5045182;28;45292;-88
2022/07/03 03:50:58;;;;;;;;;1.00;1.00;;;;;16.68;100.00;101540.72;5045190;28;44922;-85
2022/07/03 03:53:25;;;;;;;;;1.00;1.00;;;;;16.71;100.00;101545.84;5045221;28;45285;-85
2022/07/03 03:56:01;;;;;;;;;1.80;0.20;;;;;16.67;100.00;101547.91;5048131;28;44736;-86
2022/07/03 03:58:35;;;;;;;;;1.40;1.40;;;;;16.65;100.00;101552.56;5023325;28;45407;-85
2022/07/03 04:01:09;;;;;;;;;1.80;1.00;;;;;16.65;100.00;101555.25;5041770;28;44766;-86
2022/07/03 04:03:44;;;;;;;;;1.40;1.40;;;;;16.64;100.00;101555.38;5041506;28;45407;-86
2022/07/03 04:06:14;;;;;;;;;2.60;1.00;;;;;16.60;100.00;101548.53;5023608;28;45072;-86
2022/07/03 04:08:42;;;;;;;;;1.00;1.00;;;;;16.69;100.00;101563.91;5048032;28;44856;-86
2022/07/03 04:11:08;;;;;;;;;1.00;1.00;;;;;16.75;100.00;101560.75;5046805;28;44908;-85
2022/07/03 04:13:36;;;;;;;;;0.75;0.75;;;;;16.81;100.00;101557.56;5040767;28;45053;-85
2022/07/03 04:16:05;;;;;;;;;1.00;1.00;;;;;16.86;100.00;101559.91;5040451;28;45331;-85
2022/07/03 04:18:31;;;;;;;;;1.00;1.00;;;;;16.90;100.00;101558.69;5022080;28;45506;-85
2022/07/03 04:20:56;;;;;;;;;0.25;0.25;;;;;16.93;100.00;101559.28;5023857;28;45361;-85
2022/07/03 04:23:22;;;;;;;;;1.00;1.00;;;;;17.03;100.00;101563.91;5042282;28;44882;-86
2022/07/03 04:25:47;;;;;;;;;0.50;0.50;;;;;17.05;100.00;101568.16;5041031;28;44937;-85
2022/07/03 04:28:13;;;;;;;;;1.00;0.00;;;;;17.08;100.00;101556.34;5040347;28;45542;-86
2022/07/03 04:30:39;;;;;;;;;1.00;1.00;;;;;17.19;100.00;101565.22;5039321;28;45190;-85
2022/07/03 04:33:05;;;;;;;;;0.80;0.80;;;;;17.39;100.00;101571.63;5039078;28;45401;-85
2022/07/03 04:35:31;;;;;;;;;0.50;0.50;;;;;17.37;100.00;101572.75;5021607;28;44838;-86
2022/07/03 04:37:56;;;;;;;;;1.25;0.25;;;;;17.32;100.00;101580.34;5042616;28;45389;-85
2022/07/03 04:40:25;;;;;;;;;0.00;0.00;;;;;17.44;100.00;101576.63;5025985;28;44914;-85
2022/07/03 04:43:03;;;;;;;;;0.80;0.80;;;;;17.41;100.00;101584.97;5024238;28;46912;-85
2022/07/03 04:45:28;;;;;;;;;0.40;0.40;;;;;17.55;100.00;101581.13;5044201;28;45416;-85
2022/07/03 04:47:54;;;;;;;;;0.00;0.00;;;;;17.44;100.00;101569.41;5016813;28;44857;-85
2022/07/03 04:50:20;;;;;;;;;0.00;0.00;;;;;17.50;100.00;101580.63;5034972;28;44861;-86
2022/07/03 04:52:45;;;;;;;;;1.00;0.00;;;;;17.61;100.00;101584.16;5021436;28;46557;-85
2022/07/03 04:55:14;;;;;;;;;2.00;2.00;;;;;17.67;100.00;101589.03;5041133;28;45217;-85
2022/07/03 04:57:39;;;;;;;;;0.40;0.00;;;;;17.72;100.00;101575.19;5048705;28;44801;-85
2022/07/03 05:00:11;;;;;;;;;2.75;1.25;;;;;17.92;100.00;101579.78;5049133;28;44792;-84
2022/07/03 05:02:37;;;;;;;;;2.00;1.00;;;;;17.86;100.00;101582.13;5031902;28;45278;-83
2022/07/03 05:05:06;;;;;;;;;4.25;4.25;;;;;17.80;100.00;101585.34;5026007;28;45623;-83
2022/07/03 05:07:32;;;;;;;;;5.80;5.80;;;;;17.80;100.00;101583.50;5037478;28;45516;-84
2022/07/03 05:09:58;;;;;;;;;3.25;3.25;;;;;17.79;100.00;101581.78;5020119;28;45529;-84
2022/07/03 05:12:24;;;;;;;;;3.00;3.00;;;;;17.93;100.00;101588.69;5045095;28;45388;-84
2022/07/03 05:14:52;;;;;;;;;2.75;1.25;;;;;17.97;100.00;101591.00;5049824;28;45175;-84
2022/07/03 05:17:23;;;;;;;;;2.00;2.00;;;;;18.14;100.00;101594.09;5044961;28;44761;-84
2022/07/03 05:20:23;;;;;;;;;3.80;1.20;;;;;18.33;100.00;101596.94;5036974;28;44904;-84
2022/07/03 05:22:38;;;;;;;;;1.00;1.00;;;;;18.48;100.00;101587.53;5036996;28;45462;-85
2022/07/03 05:25:05;;;;;;;;;4.80;1.80;;;;;18.65;100.00;101588.72;5036774;28;45261;-84
2022/07/03 05:27:31;;;;;;;;;2.00;2.00;;;;;18.75;100.00;101583.41;5036541;28;45382;-84
2022/07/03 05:30:06;;;;;;;;;1.00;1.00;;;;;18.73;100.00;101583.56;5037054;28;45204;-84
2022/07/03 05:32:55;;;;;;;;;1.40;1.00;;;;;18.96;100.00;101578.84;5018584;28;45161;-84
2022/07/03 05:35:30;;;;;;;;;0.40;0.20;;;;;19.10;100.00;101580.31;4978158;28;44850;-84
2022/07/03 05:38:04;;;;;;;;;0.80;0.80;;;;;19.17;100.00;101592.22;4979535;28;45259;-84
2022/07/03 05:40:33;;;;;;;;;0.00;0.00;;;;;19.32;100.00;101594.53;4960704;28;45559;-84
2022/07/03 05:43:16;;;;;;;;;0.40;0.40;;;;;19.04;100.00;101580.00;4962278;28;47812;-85
2022/07/03 05:45:47;;;;;;;;;2.40;1.00;;;;;19.07;100.00;101596.75;4978052;28;45288;-85
2022/07/03 05:48:23;;;;;;;;;1.00;1.00;;;;;19.29;100.00;101597.50;4979280;28;45389;-83
2022/07/03 05:50:49;;;;;;;;;1.80;1.20;;;;;19.27;100.00;101600.34;4958746;28;44895;-84
2022/07/03 05:53:21;;;;;;;;;1.00;1.00;;;;;19.58;100.00;101601.13;4958148;28;46551;-84
2022/07/03 05:55:52;;;;;;;;;0.00;0.00;;;;;19.42;100.00;101590.00;4958687;28;45160;-84
2022/07/03 05:58:26;;;;;;;;;1.00;1.00;;;;;19.45;100.00;101597.84;4960492;28;44856;-84
2022/07/03 06:00:55;;;;;;;;;2.00;2.00;;;;;19.25;100.00;101595.09;4968973;28;45452;-84
2022/07/03 06:03:21;;;;;;;;;0.80;0.60;;;;;19.28;100.00;101599.34;4975230;28;45530;-83
2022/07/03 06:05:47;;;;;;;;;1.20;1.20;;;;;19.23;100.00;101602.44;4958211;28;45529;-84
2022/07/03 06:08:18;;;;;;;;;0.50;0.50;;;;;19.50;100.00;101601.81;4958169;28;45417;-84
2022/07/03 06:10:43;;;;;;;;;1.00;1.00;;;;;19.69;100.00;101608.25;4975790;28;44910;-84
2022/07/03 06:13:22;;;;;;;;;1.00;1.00;;;;;19.69;100.00;101603.72;5004876;28;45361;-84
2022/07/03 06:15:54;;;;;;;;;0.20;0.20;;;;;19.38;100.00;101605.59;5019759;28;44795;-85
2022/07/03 06:18:23;;;;;;;;;1.60;1.60;;;;;19.19;100.00;101598.31;5021124;28;44739;-84
2022/07/03 06:20:48;;;;;;;;;2.40;1.40;;;;;18.85;100.00;101608.53;5008032;28;44898;-84
2022/07/03 06:23:20;;;;;;;;;2.00;2.00;;;;;19.08;100.00;101625.38;5004102;28;46693;-85
2022/07/03 06:25:49;;;;;;;;;1.80;1.00;;;;;19.00;100.00;101622.50;5006921;28;45441;-84
2022/07/03 06:28:15;;;;;;;;;1.40;1.40;;;;;19.33;100.00;101617.78;5028196;28;44706;-84
2022/07/03 06:30:43;;;;;;;;;1.00;1.00;;;;;19.40;100.00;101616.25;5027055;28;44908;-84
2022/07/03 06:33:14;;;;;;;;;1.80;1.80;;;;;19.52;100.00;101625.91;5023573;28;45420;-85
2022/07/03 06:35:41;;;;;;;;;1.00;1.00;;;;;19.63;100.00;101624.97;5019396;28;44811;-84
2022/07/03 06:38:07;;;;;;;;;3.00;2.00;;;;;19.64;100.00;101618.59;5002152;28;44689;-86
2022/07/03 06:40:32;;;;;;;;;0.75;0.75;;;;;19.89;100.00;101617.19;5022768;28;45508;-85
2022/07/03 06:43:12;;;;;;;;;1.25;1.25;;;;;19.79;100.00;101617.19;5013227;28;45644;-84
2022/07/03 06:45:38;;;;;;;;;2.00;2.00;;;;;19.67;100.00;101615.59;4998450;28;44807;-84
2022/07/03 06:48:04;;;;;;;;;3.20;2.00;;;;;19.73;100.00;101613.22;5036878;28;44824;-86
2022/07/03 06:50:33;;;;;;;;;1.20;1.00;;;;;19.99;100.00;101620.75;5044439;28;44828;-87
2022/07/03 06:53:00;;;;;;;;;0.60;0.60;;;;;20.15;100.00;101626.41;5043504;28;45376;-85
2022/07/03 06:55:26;;;;;;;;;2.00;2.00;;;;;20.35;100.00;101618.28;5041907;28;45472;-85
2022/07/03 06:57:59;;;;;;;;;2.00;2.00;;;;;20.15;100.00;101615.63;5022505;28;44839;-85
2022/07/03 07:00:24;;;;;;;;;1.80;1.80;;;;;20.12;100.00;101612.38;5020941;28;44896;-84
2022/07/03 07:02:55;;;;;;;;;3.75;3.00;;;;;19.97;100.00;101617.34;5021304;28;46550;-84
2022/07/03 07:05:22;;;;;;;;;1.00;1.00;;;;;20.00;100.00;101628.69;5024477;28;44742;-86
2022/07/03 07:07:51;;;;;;;;;0.00;0.00;;;;;19.80;100.00;101629.69;5029223;28;44802;-86
2022/07/03 07:10:26;;;;;;;;;3.00;3.00;;;;;19.90;100.00;101638.63;5025666;28;45289;-85
2022/07/03 07:12:51;;;;;;;;;1.20;1.20;;;;;20.13;100.00;101633.81;5024366;28;46578;-86
2022/07/03 07:15:25;;;;;;;;;2.25;2.25;;;;;20.35;100.00;101638.03;5045332;28;45412;-86
2022/07/03 07:17:56;;;;;;;;;3.00;3.00;;;;;20.47;100.00;101627.97;5042593;28;45344;-85
2022/07/03 07:20:22;;;;;;;;;2.60;2.60;;;;;20.51;100.00;101632.09;5047367;28;45237;-86
2022/07/03 07:22:47;;;;;;;;;2.00;2.00;;;;;20.65;100.00;101631.63;5028532;28;46794;-86
2022/07/03 07:25:13;;;;;;;;;4.00;3.00;;;;;20.68;100.00;101630.47;5044582;28;44660;-85
2022/07/03 07:27:39;;;;;;;;;1.00;1.00;;;;;20.92;100.00;101633.50;5044494;28;44739;-85
2022/07/03 07:30:05;;;;;;;;;1.80;1.80;;;;;21.34;100.00;101638.47;5031495;28;44930;-86
2022/07/03 07:32:31;;;;;;;;;1.00;1.00;;;;;21.37;100.00;101632.78;5035498;28;46895;-85
2022/07/03 07:34:56;;;;;;;;;2.50;2.00;;;;;21.12;100.00;101631.56;5033601;28;44818;-84
2022/07/03 07:37:21;;;;;;;;;3.25;1.00;;;;;21.23;100.00;101635.94;5049444;28;45439;-85
2022/07/03 07:39:51;;;;;;;;;2.75;1.25;;;;;21.03;100.00;101633.34;5041572;28;45372;-87
2022/07/03 07:42:17;;;;;;;;;3.20;3.00;;;;;20.81;100.00;101638.25;5040837;28;45319;-87
2022/07/03 07:44:42;;;;;;;;;5.50;3.00;;;;;21.08;100.00;101634.72;5045374;28;44747;-87
2022/07/03 07:47:07;;;;;;;;;2.75;2.00;;;;;21.46;100.00;101631.00;5044611;28;44829;-87
2022/07/03 07:49:33;;;;;;;;;3.00;3.00;;;;;21.35;100.00;101626.66;5042789;28;45443;-87
2022/07/03 07:51:59;;;;;;;;;3.50;2.75;;;;;21.35;100.00;101631.22;5028573;28;45233;-87
2022/07/03 07:54:24;;;;;;;;;0.25;0.25;;;;;21.44;100.00;101624.91;5028759;28;44822;-83
2022/07/03 07:56:50;;;;;;;;;3.25;2.25;;;;;21.67;100.00;101628.03;5053163;28;45054;-88
2022/07/03 07:59:15;;;;;;;;;4.00;4.00;;;;;21.70;100.00;101625.00;5050394;28;44873;-86
2022/07/03 08:07:14;;;;;;;;;3.40;3.40;;;;;21.27;100.00;101623.81;5048617;28;44796;-92
2022/07/03 08:09:40;;;;;;;;;4.40;4.40;;;;;21.40;100.00;101628.91;5042902;28;44910;-89
2022/07/03 08:12:05;;;;;;;;;2.25;2.25;;;;;21.11;100.00;101627.16;5044690;28;45330;-88
2022/07/03 08:14:31;;;;;;;;;4.75;4.75;;;;;20.86;100.00;101633.25;5040596;28;44720;-88
2022/07/03 08:16:56;;;;;;;;;4.00;2.50;;;;;20.74;100.00;101635.28;5023766;28;44766;-88
2022/07/03 08:19:22;;;;;;;;;3.50;3.00;;;;;20.95;100.00;101626.97;5044002;28;44793;-88
2022/07/03 08:21:47;;;;;;;;;2.75;2.75;;;;;21.20;100.00;101631.69;5027317;28;45624;-88
2022/07/03 08:24:12;;;;;;;;;7.50;4.50;;;;;21.45;100.00;101627.44;5050780;28;44640;-88
2022/07/03 08:26:38;;;;;;;;;5.00;5.00;;;;;21.39;100.00;101633.47;5052726;28;45303;-87
2022/07/03 08:29:03;;;;;;;;;5.00;5.00;;;;;21.45;100.00;101623.88;5038286;28;44877;-89
2022/07/03 08:31:29;;;;;;;;;5.50;4.25;;;;;21.16;100.00;101621.31;5053469;28;45335;-89
2022/07/03 08:33:54;;;;;;;;;3.25;3.00;;;;;21.09;100.00;101617.53;5045350;28;44808;-88
2022/07/03 08:36:20;;;;;;;;;2.50;0.50;;;;;21.21;100.00;101630.69;5029672;28;44853;-87
2022/07/03 08:38:45;;;;;;;;;3.25;2.75;;;;;21.22;100.00;101620.72;5028923;28;44910;-88
2022/07/03 08:41:13;;;;;;;;;3.00;1.00;;;;;21.27;100.00;101631.91;5043622;28;45179;-89
2022/07/03 08:43:42;;;;;;;;;4.00;4.00;;;;;21.00;100.00;101625.53;5023841;28;45254;-88
2022/07/03 08:46:09;;;;;;;;;1.80;1.80;;;;;21.12;100.00;101623.47;5021820;28;45314;-88
2022/07/03 08:48:36;;;;;;;;;4.00;4.00;;;;;21.34;100.00;101618.72;5039441;28;44929;-88
2022/07/03 08:51:02;;;;;;;;;3.00;3.00;;;;;21.52;100.00;101617.75;5041855;28;45269;-88
2022/07/03 08:53:28;;;;;;;;;3.00;3.00;;;;;21.03;100.00;101619.84;5025215;28;44841;-89
2022/07/03 08:55:55;;;;;;;;;2.25;2.25;;;;;21.26;100.00;101620.25;5044486;28;45415;-88
2022/07/03 08:58:23;;;;;;;;;3.00;3.00;;;;;21.54;100.00;101609.47;5040025;28;44702;-88
2022/07/03 09:00:50;;;;;;;;;4.80;3.40;;;;;21.73;100.00;101605.78;5041691;28;45168;-88
2022/07/03 09:03:16;;;;;;;;;3.60;3.40;;;;;21.66;100.00;101613.66;5044359;28;44742;-88
2022/07/03 09:05:42;;;;;;;;;4.20;3.40;;;;;21.77;100.00;101616.13;5025640;28;44756;-88
2022/07/03 09:08:09;;;;;;;;;4.00;2.00;;;;;21.85;100.00;101614.50;5022146;28;45612;-89
2022/07/03 09:10:35;;;;;;;;;4.00;3.00;;;;;21.74;100.00;101613.72;5039934;28;45185;-88
2022/07/03 09:13:01;;;;;;;;;2.00;2.00;;;;;21.92;100.00;101611.03;5024447;28;44639;-88
2022/07/03 09:15:26;;;;;;;;;1.75;1.75;;;;;21.99;100.00;101612.09;5045295;28;45224;-88
2022/07/03 09:18:03;;;;;;;;;5.00;3.50;;;;;21.78;100.00;101623.22;5043918;28;44916;-89
2022/07/03 09:20:32;;;;;;;;;2.00;2.00;;;;;21.42;100.00;101611.53;5027870;28;45384;-88
2022/07/03 09:26:19;;;;;;;;;3.00;3.00;;;;;21.86;100.00;101603.53;5044467;28;44939;-88
2022/07/03 09:29:12;;;;;;;;;1.00;1.00;;;;;21.95;100.00;101607.13;5023365;28;44854;-88
2022/07/03 09:31:39;;;;;;;;;3.60;3.00;;;;;22.22;100.00;101607.06;5043584;28;45195;-88
2022/07/03 09:34:09;;;;;;;;;3.20;2.20;;;;;22.18;100.00;101602.97;5043810;28;44816;-89
2022/07/03 09:36:44;;;;;;;;;4.20;3.00;;;;;22.25;100.00;101609.47;5040938;28;44717;-89
2022/07/03 09:39:25;;;;;;;;;2.20;2.20;;;;;22.40;100.00;101608.91;5022098;28;44813;-88
2022/07/03 09:42:01;;;;;;;;;2.40;2.40;;;;;22.35;100.00;101611.25;5027310;28;46207;-89
2022/07/03 09:44:46;;;;;;;;;3.00;3.00;;;;;22.08;100.00;101599.47;5046995;28;45471;-89
2022/07/03 09:47:16;;;;;;;;;2.40;2.40;;;;;21.98;100.00;101610.41;5043172;28;44774;-88
2022/07/03 09:49:47;;;;;;;;;1.40;1.40;;;;;21.65;100.00;101617.34;5023076;28;45231;-87
2022/07/03 09:52:31;;;;;;;;;2.00;2.00;;;;;21.50;100.00;101617.03;5043602;28;45144;-87
2022/07/03 09:54:59;;;;;;;;;1.80;1.60;;;;;21.25;100.00;101621.28;5032580;28;44743;-89
2022/07/03 09:57:27;;;;;;;;;2.20;1.20;;;;;21.49;100.00;101617.19;5049342;28;44680;-88
2022/07/03 10:00:21;;;;;;;;;2.00;2.00;;;;;21.63;100.00;101616.66;5049175;28;44823;-90
2022/07/03 10:02:53;;;;;;;;;2.20;2.20;;;;;22.22;100.00;101617.06;5025570;28;45718;-91
2022/07/03 10:05:19;;;;;;;;;3.40;3.00;;;;;21.88;100.00;101625.00;5047656;28;44752;-92
2022/07/03 10:07:59;;;;;;;;;2.00;2.00;;;;;22.07;100.00;101616.72;5030183;28;44683;-92
2022/07/03 10:10:28;;;;;;;;;2.60;1.80;;;;;22.02;100.00;101611.78;5028206;28;44936;-92
2022/07/03 10:12:56;;;;;;;;;2.00;2.00;;;;;22.38;100.00;101610.91;5014098;28;45181;-92
2022/07/03 10:15:23;;;;;;;;;3.80;3.80;;;;;22.96;100.00;101621.94;5049886;28;44575;-92
2022/07/03 10:17:59;;;;;;;;;4.00;2.60;;;;;23.18;100.00;101625.13;5032008;28;44741;-92
2022/07/03 10:20:35;;;;;;;;;2.20;2.20;;;;;22.92;100.00;101627.84;5032685;28;44945;-92
2022/07/03 10:23:06;;;;;;;;;2.20;2.20;;;;;22.83;100.00;101625.09;5027480;28;46933;-91
2022/07/03 10:25:33;;;;;;;;;3.00;3.00;;;;;22.77;100.00;101628.44;5061915;28;44576;-91
2022/07/03 10:28:00;;;;;;;;;1.00;1.00;;;;;22.48;100.00;101634.19;5035529;28;44751;-91
2022/07/03 10:30:27;;;;;;;;;2.00;2.00;;;;;22.36;100.00;101629.19;5047704;28;44872;-90
2022/07/03 10:32:54;;;;;;;;;2.60;2.60;;;;;22.33;100.00;101623.06;5048800;28;45236;-90
2022/07/03 10:35:29;;;;;;;;;3.00;3.00;;;;;22.13;100.00;101618.84;5046015;28;44596;-91
2022/07/03 10:38:30;;;;;;;;;4.00;3.00;;;;;22.56;100.00;101627.97;5035674;28;44688;-90
2022/07/03 10:47:43;;;;;;;;;3.40;3.20;;;;;22.22;100.00;101628.72;5010732;28;44622;-89
2022/07/03 10:50:16;;;;;;;;;3.60;3.60;;;;;22.54;100.00;101624.56;5001805;28;44847;-88
2022/07/03 10:52:42;;;;;;;;;3.80;3.60;;;;;22.61;100.00;101631.03;5001875;28;44930;-88
2022/07/03 10:55:08;;;;;;;;;6.40;6.00;;;;;22.64;100.00;101624.47;5014520;28;45518;-91
2022/07/03 10:57:36;;;;;;;;;6.60;5.80;;;;;22.64;100.00;101630.72;5022401;28;44799;-91
2022/07/03 11:00:06;;;;;;;;;5.00;5.00;;;;;22.44;100.00;101645.50;4986250;28;44813;-91
2022/07/03 11:02:39;;;;;;;;;5.00;5.00;;;;;22.46;100.00;101624.50;5014314;28;44887;-92
2022/07/03 11:05:12;;;;;;;;;5.80;5.80;;;;;22.45;100.00;101639.06;4996705;28;45138;-92
2022/07/03 11:07:50;;;;;;;;;5.40;4.60;;;;;22.58;100.00;101628.66;5013655;28;44771;-93
2022/07/03 11:10:16;;;;;;;;;4.00;4.00;;;;;22.93;100.00;101618.75;4998580;28;44677;-93
2022/07/03 11:13:00;;;;;;;;;5.60;5.00;;;;;23.46;100.00;101615.72;5016351;28;44943;-92
2022/07/03 11:15:26;;;;;;;;;6.20;5.00;;;;;23.23;100.00;101623.59;5014526;28;45372;-91
2022/07/03 11:18:13;;;;;;;;;6.60;5.80;;;;;23.60;100.00;101633.22;5022886;28;44709;-92
2022/07/03 11:20:42;;;;;;;;;11.60;11.40;;;;;23.43;100.00;101615.19;5033568;28;44888;-91
2022/07/03 11:23:13;;;;;;;;;6.00;6.00;;;;;23.46;100.00;101623.00;5036379;28;44969;-91
2022/07/03 11:25:49;;;;;;;;;4.60;4.60;;;;;23.65;100.00;101625.47;5055496;28;45009;-90
2022/07/03 11:28:33;;;;;;;;;6.00;4.20;;;;;23.38;100.00;101625.69;5035510;28;44755;-91
2022/07/03 11:31:13;;;;;;;;;6.80;5.60;;;;;23.48;100.00;101629.09;5060036;28;44672;-92
2022/07/03 11:33:51;;;;;;;;;4.40;4.40;;;;;23.69;100.00;101623.25;5060569;28;44726;-92
2022/07/03 11:36:17;;;;;;;;;5.00;5.00;;;;;23.44;100.00;101633.16;5037126;28;45129;-91
2022/07/03 11:38:48;;;;;;;;;3.75;3.25;;;;;23.46;100.00;101621.13;5038127;28;44659;-88
2022/07/03 11:41:15;;;;;;;;;3.60;3.60;;;;;23.99;100.00;101622.63;5051176;28;45174;-88
2022/07/03 11:43:53;;;;;;;;;7.00;5.40;;;;;24.34;99.86;101626.00;5048256;28;44765;-88
2022/07/03 11:46:20;;;;;;;;;5.40;5.40;;;;;24.15;99.75;101615.50;5044996;28;45227;-88
2022/07/03 11:48:46;;;;;;;;;8.80;6.20;;;;;24.06;100.00;101610.06;5049078;28;44889;-88